Time;durP1;ratioP1;P1;durP2;ratioP2;P2;SDS_P1;SDS_P2;PMS_P1;PMS_P2;Temp;Humidity;BMP_temperature;BMP_pressure;BME280_temperature;BME280_humidity;BME280_pressure;Samples;Min_cycle;Max_cycle;Signal;HPM_P1;HPM_P2
2022/07/20 00:00:01;;;;;;;;;;;;;;;12.71;100.00;99836.23;1703077;83;22211;-69
2022/07/20 00:02:30;;;;;;;;;;;;;;;12.66;100.00;99832.26;1696220;83;20087;-69
2022/07/20 00:05:02;;;;;;;;;;;;;;;12.62;100.00;99834.03;1670006;84;20099;-69
2022/07/20 00:07:31;;;;;;;;;;;;;;;12.56;100.00;99832.81;1695571;84;20180;-69
2022/07/20 00:12:48;;;;;;;;;;;;;;;12.45;100.00;99836.19;1694233;84;21198;-69
2022/07/20 00:15:16;;;;;;;;;;;;;;;12.40;100.00;99831.64;1695071;84;20598;-69
2022/07/20 00:17:45;;;;;;;;;;;;;;;12.35;100.00;99828.23;1694312;84;20439;-69
2022/07/20 00:20:14;;;;;;;;;;;;;;;12.29;100.00;99827.57;1695329;84;20331;-69
2022/07/20 00:22:44;;;;;;;;;;;;;;;12.22;100.00;99828.04;1695675;84;20095;-69
2022/07/20 00:25:17;;;;;;;;;;;;;;;12.19;100.00;99837.50;1695086;84;21167;-69
2022/07/20 00:27:46;;;;;;;;;;;;;;;12.15;100.00;99833.76;1673127;84;20176;-69
2022/07/20 00:30:18;;;;;;;;;;;;;;;12.11;100.00;99827.30;1672105;84;20465;-69
2022/07/20 00:32:47;;;;;;;;;;;;;;;12.08;100.00;99824.63;1695806;84;20127;-69
2022/07/20 00:35:18;;;;;;;;;;;;;;;12.04;100.00;99827.77;1702842;83;20158;-69
2022/07/20 00:37:49;;;;;;;;;;;;;;;12.01;100.00;99827.59;1703691;83;20087;-69
2022/07/20 00:40:19;;;;;;;;;;;;;;;11.98;100.00;99833.16;1695857;84;20104;-69
2022/07/20 00:42:48;;;;;;;;;;;;;;;11.94;100.00;99825.86;1695849;84;20103;-69
2022/07/20 00:45:16;;;;;;;;;;;;;;;11.92;100.00;99822.62;1695409;84;20092;-69
2022/07/20 00:47:48;;;;;;;;;;;;;;;11.89;100.00;99830.94;1695859;84;20100;-69
2022/07/20 00:50:17;;;;;;;;;;;;;;;11.84;100.00;99825.58;1667453;84;21536;-69
2022/07/20 00:52:46;;;;;;;;;;;;;;;11.81;100.00;99826.21;1695774;84;20112;-69
2022/07/20 00:55:19;;;;;;;;;;;;;;;11.78;100.00;99825.47;1672039;84;20134;-69
2022/07/20 00:57:52;;;;;;;;;;;;;;;11.75;100.00;99830.20;1695899;84;20115;-69
2022/07/20 01:00:18;;;;;;;;;;;;;;;11.71;100.00;99827.83;1695136;84;20265;-69
2022/07/20 01:02:47;;;;;;;;;;;;;;;11.68;100.00;99818.84;1691657;84;21192;-70
2022/07/20 01:05:17;;;;;;;;;;;;;;;11.67;100.00;99815.84;1671859;84;20119;-70
2022/07/20 01:07:48;;;;;;;;;;;;;;;11.63;100.00;99811.53;1688441;83;20158;-70
2022/07/20 01:10:16;;;;;;;;;;;;;;;11.61;100.00;99815.16;1695722;84;20156;-69
2022/07/20 01:12:49;;;;;;;;;;;;;;;11.57;100.00;99812.80;1695178;84;20431;-70
2022/07/20 01:15:24;;;;;;;;;;;;;;;11.54;100.00;99813.45;1695810;84;21571;-69
2022/07/20 01:17:56;;;;;;;;;;;;;;;11.51;100.00;99814.09;1696170;84;20087;-69
2022/07/20 01:20:25;;;;;;;;;;;;;;;11.49;100.00;99809.47;1695528;84;20123;-69
2022/07/20 01:22:57;;;;;;;;;;;;;;;11.47;100.00;99813.91;1695578;84;20462;-70
2022/07/20 01:25:26;;;;;;;;;;;;;;;11.45;100.00;99818.91;1695792;84;20455;-70
2022/07/20 01:27:57;;;;;;;;;;;;;;;11.42;100.00;99812.66;1669842;84;20123;-69
2022/07/20 01:30:26;;;;;;;;;;;;;;;11.39;100.00;99813.86;1695439;84;20087;-69
2022/07/20 01:33:01;;;;;;;;;;;;;;;11.37;100.00;99814.73;1647895;84;34401;-70
2022/07/20 01:35:32;;;;;;;;;;;;;;;11.35;100.00;99811.48;1664143;84;20099;-70
2022/07/20 01:38:04;;;;;;;;;;;;;;;11.31;100.00;99814.61;1674289;83;20490;-69
2022/07/20 01:40:32;;;;;;;;;;;;;;;11.27;100.00;99809.49;1682600;84;20120;-69
2022/07/20 01:43:03;;;;;;;;;;;;;;;11.23;100.00;99802.44;1694471;84;20099;-69
2022/07/20 01:45:32;;;;;;;;;;;;;;;11.20;100.00;99796.20;1695861;84;20087;-69
2022/07/20 01:47:59;;;;;;;;;;;;;;;11.20;100.00;99804.44;1695185;84;20176;-69
2022/07/20 01:50:31;;;;;;;;;;;;;;;11.19;100.00;99803.63;1695560;84;20123;-69
2022/07/20 01:52:57;;;;;;;;;;;;;;;11.18;100.00;99797.88;1693911;84;20897;-69
2022/07/20 01:55:32;;;;;;;;;;;;;;;11.16;100.00;99809.75;1695432;84;20123;-70
2022/07/20 01:58:00;;;;;;;;;;;;;;;11.15;100.00;99808.13;1694696;84;20091;-69
2022/07/20 02:00:26;;;;;;;;;;;;;;;11.14;100.00;99811.19;1694563;84;20252;-69
2022/07/20 02:02:59;;;;;;;;;;;;;;;11.12;100.00;99814.25;1697513;83;20120;-70
2022/07/20 02:05:23;;;;;;;;;;;;;;;11.10;100.00;99815.12;1701495;83;22410;-69
2022/07/20 02:07:52;;;;;;;;;;;;;;;11.10;100.00;99815.68;1694724;84;20414;-69
2022/07/20 02:10:21;;;;;;;;;;;;;;;11.14;100.00;99815.30;1695451;84;20103;-70
2022/07/20 02:12:51;;;;;;;;;;;;;;;11.17;100.00;99807.81;1695421;84;20536;-70
2022/07/20 02:18:06;;;;;;;;;;;;;;;11.20;100.00;99803.87;1695551;84;21557;-69
2022/07/20 02:20:37;;;;;;;;;;;;;;;11.24;100.00;99808.19;1695420;84;20087;-69
2022/07/20 02:23:04;;;;;;;;;;;;;;;11.29;100.00;99803.94;1696039;84;20099;-69
2022/07/20 02:25:34;;;;;;;;;;;;;;;11.33;100.00;99809.05;1695706;84;20168;-69
2022/07/20 02:28:05;;;;;;;;;;;;;;;11.34;100.00;99807.92;1672234;84;20127;-69
2022/07/20 02:30:33;;;;;;;;;;;;;;;11.33;100.00;99804.93;1707604;83;21204;-69
2022/07/20 02:33:07;;;;;;;;;;;;;;;11.35;100.00;99808.73;1699997;83;20087;-69
2022/07/20 02:35:39;;;;;;;;;;;;;;;11.35;100.00;99808.17;1695794;84;20087;-69
2022/07/20 02:38:16;;;;;;;;;;;;;;;11.40;100.00;99805.86;1695704;84;20091;-69
2022/07/20 02:40:44;;;;;;;;;;;;;;;11.43;100.00;99813.48;1694679;84;20103;-69
2022/07/20 02:43:17;;;;;;;;;;;;;;;11.44;100.00;99816.47;1695804;84;21184;-69
2022/07/20 02:45:41;;;;;;;;;;;;;;;11.48;100.00;99820.22;1694558;84;20119;-69
2022/07/20 02:48:09;;;;;;;;;;;;;;;11.52;100.00;99824.77;1695704;84;20138;-70
2022/07/20 02:50:41;;;;;;;;;;;;;;;11.56;100.00;99822.17;1672490;84;20143;-69
2022/07/20 02:53:09;;;;;;;;;;;;;;;11.60;100.00;99816.29;1695747;84;20099;-69
2022/07/20 02:55:43;;;;;;;;;;;;;;;11.64;100.00;99820.03;1695110;84;21103;-69
2022/07/20 02:58:10;;;;;;;;;;;;;;;11.68;100.00;99822.96;1694177;84;20119;-69
2022/07/20 03:00:41;;;;;;;;;;;;;;;11.74;100.00;99828.01;1683814;84;20465;-70
2022/07/20 03:03:16;;;;;;;;;;;;;;;11.84;100.00;99825.58;1708410;83;20107;-69
2022/07/20 03:05:44;;;;;;;;;;;;;;;11.93;100.00;99831.92;1672016;84;20123;-69
2022/07/20 03:08:14;;;;;;;;;;;;;;;12.03;100.00;99829.45;1671585;84;20075;-69
2022/07/20 03:10:46;;;;;;;;;;;;;;;12.12;100.00;99828.92;1686243;84;20446;-69
2022/07/20 03:13:21;;;;;;;;;;;;;;;12.23;100.00;99826.09;1693081;84;20422;-69
2022/07/20 03:15:48;;;;;;;;;;;;;;;12.33;100.00;99831.88;1694618;84;20124;-69
2022/07/20 03:18:15;;;;;;;;;;;;;;;12.42;100.00;99823.06;1696063;84;20103;-69
2022/07/20 03:20:42;;;;;;;;;;;;;;;12.55;100.00;99820.17;1695491;84;21977;-71
2022/07/20 03:23:08;;;;;;;;;;;;;;;12.67;100.00;99821.48;1714809;83;20081;-70
2022/07/20 03:25:45;;;;;;;;;;;;;;;12.77;100.00;99825.27;1716610;83;20122;-69
2022/07/20 03:28:13;;;;;;;;;;;;;;;12.85;100.00;99828.03;1731419;83;20514;-70
2022/07/20 03:30:46;;;;;;;;;;;;;;;12.96;100.00;99824.38;1711872;83;20139;-70
2022/07/20 03:33:17;;;;;;;;;;;;;;;13.08;100.00;99829.25;1730321;82;21131;-70
2022/07/20 03:35:41;;;;;;;;;;;;;;;13.20;100.00;99823.34;1731433;82;20095;-69
2022/07/20 03:38:08;;;;;;;;;;;;;;;13.34;100.00;99830.59;1731630;83;20210;-69
2022/07/20 03:40:36;;;;;;;;;;;;;;;13.45;100.00;99829.93;1731666;83;20160;-69
2022/07/20 03:43:09;;;;;;;;;;;;;;;13.57;100.00;99835.34;1731400;82;20099;-70
2022/07/20 03:45:42;;;;;;;;;;;;;;;13.70;100.00;99837.91;1728603;83;21142;-70
2022/07/20 03:48:11;;;;;;;;;;;;;;;13.86;100.00;99839.55;1723900;83;20089;-70
2022/07/20 03:50:40;;;;;;;;;;;;;;;13.98;100.00;99835.50;1697813;83;20110;-70
2022/07/20 03:53:12;;;;;;;;;;;;;;;14.09;100.00;99835.94;1724330;83;20684;-69
2022/07/20 03:55:45;;;;;;;;;;;;;;;14.18;100.00;99830.63;1723587;83;20185;-70
2022/07/20 03:58:16;;;;;;;;;;;;;;;14.30;100.00;99830.48;1699448;83;20085;-70
2022/07/20 04:00:47;;;;;;;;;;;;;;;14.38;100.00;99822.15;1722213;83;20445;-70
2022/07/20 04:03:15;;;;;;;;;;;;;;;14.49;100.00;99821.19;1724202;83;20085;-67
2022/07/20 04:05:46;;;;;;;;;;;;;;;14.66;100.00;99817.50;1717923;83;20113;-71
2022/07/20 04:08:16;;;;;;;;;;;;;;;14.84;100.00;99813.47;1697816;83;20130;-72
2022/07/20 04:10:46;;;;;;;;;;;;;;;14.97;100.00;99811.57;1696941;83;21171;-74
2022/07/20 04:13:14;;;;;;;;;;;;;;;15.09;100.00;99812.41;1697210;83;20453;-70
2022/07/20 04:15:41;;;;;;;;;;;;;;;15.18;100.00;99818.67;1720516;83;20100;-70
2022/07/20 04:18:11;;;;;;;;;;;;;;;15.28;100.00;99813.87;1722184;83;20121;-70
2022/07/20 04:20:44;;;;;;;;;;;;;;;15.38;100.00;99810.67;1698231;83;20123;-69
2022/07/20 04:23:14;;;;;;;;;;;;;;;15.44;100.00;99804.59;1693997;84;21128;-69
2022/07/20 04:25:50;;;;;;;;;;;;;;;15.47;100.00;99802.52;1694829;84;20434;-69
2022/07/20 04:28:18;;;;;;;;;;;;;;;15.50;100.00;99803.22;1694496;84;20439;-69
2022/07/20 04:30:59;;;;;;;;;;;;;;;15.55;100.00;99798.05;1726652;83;20694;-69
2022/07/20 04:33:20;;;;;;;;;;;;;;;15.62;100.00;99796.09;1728431;82;20099;-69
2022/07/20 04:35:54;;;;;;;;;;;;;;;15.69;100.00;99791.61;1709973;83;20105;-69
2022/07/20 04:38:23;;;;;;;;;;;;;;;15.78;100.00;99796.47;1724432;83;20117;-69
2022/07/20 04:40:51;;;;;;;;;;;;;;;15.88;100.00;99786.10;1720552;83;20141;-69
2022/07/20 04:43:20;;;;;;;;;;;;;;;15.97;100.00;99790.38;1717796;83;20112;-69
2022/07/20 04:45:50;;;;;;;;;;;;;;;16.06;100.00;99787.49;1724466;83;20121;-69
2022/07/20 04:48:20;;;;;;;;;;;;;;;16.14;100.00;99790.73;1724237;83;21162;-69
2022/07/20 04:50:57;;;;;;;;;;;;;;;16.22;100.00;99788.38;1723295;83;20168;-69
2022/07/20 04:53:41;;;;;;;;;;;;;;;16.31;100.00;99786.88;1723950;83;20089;-69
2022/07/20 04:55:56;;;;;;;;;;;;;;;16.38;100.00;99786.52;1720447;83;20455;-69
2022/07/20 04:58:23;;;;;;;;;;;;;;;16.51;100.00;99786.73;1724514;83;20117;-69
2022/07/20 05:00:53;;;;;;;;;;;;;;;16.65;100.00;99784.20;1724488;83;21135;-69
2022/07/20 05:03:40;;;;;;;;;;;;;;;16.76;100.00;99773.63;1675166;83;20093;-69
2022/07/20 05:06:00;;;;;;;;;;;;;;;16.87;100.00;99772.55;1721133;83;20128;-69
2022/07/20 05:08:34;;;;;;;;;;;;;;;16.98;100.00;99764.54;1724220;83;20085;-69
2022/07/20 05:11:04;;;;;;;;;;;;;;;17.08;100.00;99764.84;1723888;83;20137;-69
2022/07/20 05:13:34;;;;;;;;;;;;;;;17.20;100.00;99761.20;1731032;83;21531;-69
2022/07/20 05:16:02;;;;;;;;;;;;;;;17.31;100.00;99759.53;1740652;82;20082;-69
2022/07/20 05:18:31;;;;;;;;;;;;;;;17.44;100.00;99757.46;1717888;82;20125;-69
2022/07/20 05:21:00;;;;;;;;;;;;;;;17.55;100.00;99755.77;1683108;83;20848;-69
2022/07/20 05:23:32;;;;;;;;;;;;;;;17.64;100.00;99753.62;1687187;83;20176;-69
2022/07/20 05:25:57;;;;;;;;;;;;;;;17.77;100.00;99752.41;1689741;83;22004;-69
2022/07/20 05:28:28;;;;;;;;;;;;;;;17.85;100.00;99753.39;1688764;83;20161;-70
2022/07/20 05:30:59;;;;;;;;;;;;;;;17.92;100.00;99747.98;1692493;83;20199;-70
2022/07/20 05:33:31;;;;;;;;;;;;;;;18.07;100.00;99754.69;1685271;84;20155;-69
2022/07/20 05:36:02;;;;;;;;;;;;;;;18.20;100.00;99754.00;1698496;84;20163;-69
2022/07/20 05:38:34;;;;;;;;;;;;;;;18.31;100.00;99751.69;1673259;84;21149;-69
2022/07/20 05:40:59;;;;;;;;;;;;;;;18.38;100.00;99746.29;1674801;84;20095;-68
2022/07/20 05:43:29;;;;;;;;;;;;;;;18.49;100.00;99750.08;1669772;85;20124;-69
2022/07/20 05:45:58;;;;;;;;;;;;;;;18.62;100.00;99738.86;1724148;83;20071;-69
2022/07/20 05:48:31;;;;;;;;;;;;;;;18.72;100.00;99733.53;1722649;83;20073;-70
2022/07/20 05:51:04;;;;;;;;;;;;;;;18.79;100.00;99732.88;1721021;83;20098;-68
2022/07/20 05:53:31;;;;;;;;;;;;;;;18.89;100.00;99725.33;1714946;83;20481;-69
2022/07/20 05:55:57;;;;;;;;;;;;;;;18.99;100.00;99721.95;1715449;83;20160;-69
2022/07/20 05:58:27;;;;;;;;;;;;;;;19.12;100.00;99720.59;1722713;83;20093;-68
2022/07/20 06:00:59;;;;;;;;;;;;;;;19.22;100.00;99704.47;1724066;82;20081;-70
2022/07/20 06:03:31;;;;;;;;;;;;;;;19.36;100.00;99708.31;1718605;83;21242;-69
2022/07/20 06:05:57;;;;;;;;;;;;;;;19.53;100.00;99707.05;1718674;83;20172;-70
2022/07/20 06:08:29;;;;;;;;;;;;;;;19.69;100.00;99706.30;1722641;83;20512;-69
2022/07/20 06:10:59;;;;;;;;;;;;;;;19.83;97.97;99706.32;1722017;83;20101;-70
2022/07/20 06:13:28;;;;;;;;;;;;;;;19.91;97.77;99694.11;1714050;83;20113;-70
2022/07/20 06:15:59;;;;;;;;;;;;;;;20.00;95.95;99689.08;1698975;83;20584;-70
2022/07/20 06:18:29;;;;;;;;;;;;;;;20.12;94.44;99690.25;1705733;83;20157;-70
2022/07/20 06:20:59;;;;;;;;;;;;;;;20.22;92.99;99689.58;1713869;83;20153;-70
2022/07/20 06:23:29;;;;;;;;;;;;;;;20.29;90.92;99685.49;1700125;84;20130;-69
2022/07/20 06:25:56;;;;;;;;;;;;;;;20.36;88.25;99686.98;1700502;84;20118;-70
2022/07/20 06:28:27;;;;;;;;;;;;;;;20.42;88.63;99683.30;1700717;84;21185;-70
2022/07/20 06:30:51;;;;;;;;;;;;;;;20.51;89.15;99678.84;1700004;84;20139;-70
2022/07/20 06:33:22;;;;;;;;;;;;;;;20.61;88.67;99676.78;1699958;84;20114;-69
2022/07/20 06:35:54;;;;;;;;;;;;;;;20.74;89.34;99669.77;1677668;84;20157;-70
2022/07/20 06:38:23;;;;;;;;;;;;;;;20.86;88.09;99668.67;1700409;84;20154;-70
2022/07/20 06:40:50;;;;;;;;;;;;;;;20.97;88.24;99670.40;1726598;83;21119;-70
2022/07/20 06:43:23;;;;;;;;;;;;;;;21.08;86.48;99662.14;1724630;83;20391;-69
2022/07/20 06:45:55;;;;;;;;;;;;;;;21.18;86.63;99660.05;1724614;83;20486;-70
2022/07/20 06:48:22;;;;;;;;;;;;;;;21.30;87.33;99668.77;1722513;83;20158;-70
2022/07/20 06:50:51;;;;;;;;;;;;;;;21.42;85.10;99668.45;1724225;83;20085;-69
2022/07/20 06:53:26;;;;;;;;;;;;;;;21.51;84.12;99664.73;1723913;83;21108;-70
2022/07/20 06:55:55;;;;;;;;;;;;;;;21.56;82.67;99678.95;1723727;83;20096;-70
2022/07/20 06:58:25;;;;;;;;;;;;;;;21.62;83.46;99669.02;1701236;83;20085;-69
2022/07/20 07:00:54;;;;;;;;;;;;;;;21.75;83.07;99661.94;1723660;83;20141;-69
2022/07/20 07:03:38;;;;;;;;;;;;;;;21.92;83.02;99671.64;1724193;83;20125;-71
2022/07/20 07:05:52;;;;;;;;;;;;;;;22.07;81.72;99665.76;1716613;83;21202;-71
2022/07/20 07:08:26;;;;;;;;;;;;;;;22.21;81.04;99672.63;1724609;83;20199;-70
2022/07/20 07:10:56;;;;;;;;;;;;;;;22.30;78.46;99662.70;1724857;83;20089;-70
2022/07/20 07:13:27;;;;;;;;;;;;;;;22.40;78.40;99660.55;1722745;83;20131;-71
2022/07/20 07:15:58;;;;;;;;;;;;;;;22.55;77.32;99660.59;1724377;83;20085;-71
2022/07/20 07:18:22;;;;;;;;;;;;;;;22.65;75.16;99648.64;1721316;83;21196;-69
2022/07/20 07:20:54;;;;;;;;;;;;;;;22.71;74.16;99646.46;1684098;84;20430;-70
2022/07/20 07:23:19;;;;;;;;;;;;;;;22.73;71.28;99648.87;1694793;84;20103;-70
2022/07/20 07:25:51;;;;;;;;;;;;;;;22.65;70.67;99643.84;1695949;84;20261;-70
2022/07/20 07:28:20;;;;;;;;;;;;;;;22.63;71.83;99649.63;1703554;83;20150;-70
2022/07/20 07:30:51;;;;;;;;;;;;;;;22.63;71.27;99644.03;1708636;83;20085;-71
2022/07/20 07:33:25;;;;;;;;;;;;;;;22.64;72.30;99638.64;1724788;83;20479;-70
2022/07/20 07:35:49;;;;;;;;;;;;;;;22.74;72.90;99632.28;1723855;83;20131;-70
2022/07/20 07:38:18;;;;;;;;;;;;;;;22.84;71.89;99632.14;1727019;82;20084;-70
2022/07/20 07:40:52;;;;;;;;;;;;;;;22.89;70.51;99637.34;1724760;83;20128;-71
2022/07/20 07:43:20;;;;;;;;;;;;;;;22.96;72.20;99635.36;1701354;83;20523;-70
2022/07/20 07:45:49;;;;;;;;;;;;;;;23.09;71.08;99625.99;1723701;83;20089;-70
2022/07/20 07:48:16;;;;;;;;;;;;;;;23.23;71.42;99621.78;1724616;83;20097;-70
2022/07/20 07:50:43;;;;;;;;;;;;;;;23.39;71.01;99627.79;1724677;83;20355;-71
2022/07/20 07:53:10;;;;;;;;;;;;;;;23.55;69.97;99617.61;1722350;83;20121;-70
2022/07/20 07:55:38;;;;;;;;;;;;;;;23.69;68.62;99613.97;1724351;83;21760;-69
2022/07/20 07:58:05;;;;;;;;;;;;;;;23.76;68.46;99615.36;1724867;83;20452;-71
2022/07/20 08:00:32;;;;;;;;;;;;;;;23.80;67.28;99607.75;1724794;83;20149;-69
2022/07/20 08:02:58;;;;;;;;;;;;;;;23.80;68.13;99607.75;1724840;83;20407;-71
2022/07/20 08:05:24;;;;;;;;;;;;;;;23.86;67.52;99605.33;1727379;83;20093;-69
2022/07/20 08:07:52;;;;;;;;;;;;;;;23.96;68.30;99607.31;1724727;83;22183;-71
2022/07/20 08:10:18;;;;;;;;;;;;;;;24.18;68.06;99600.44;1724681;83;20156;-71
2022/07/20 08:12:44;;;;;;;;;;;;;;;24.44;66.16;99586.52;1724849;83;20097;-71
2022/07/20 08:15:12;;;;;;;;;;;;;;;24.62;63.79;99578.00;1725400;83;20454;-71
2022/07/20 08:17:41;;;;;;;;;;;;;;;24.71;65.87;99579.76;1726892;83;20097;-71
2022/07/20 08:20:08;;;;;;;;;;;;;;;24.93;64.65;99579.78;1702212;83;21179;-70
2022/07/20 08:22:35;;;;;;;;;;;;;;;25.21;62.68;99575.20;1724553;83;20423;-69
2022/07/20 08:25:07;;;;;;;;;;;;;;;25.52;63.99;99572.69;1724737;83;20125;-72
2022/07/20 08:27:34;;;;;;;;;;;;;;;25.78;58.61;99578.30;1724759;83;20120;-72
2022/07/20 08:30:08;;;;;;;;;;;;;;;25.85;58.42;99581.64;1679008;83;20087;-71
2022/07/20 08:32:38;;;;;;;;;;;;;;;25.77;58.28;99580.12;1725825;82;21125;-72
2022/07/20 08:35:12;;;;;;;;;;;;;;;25.79;58.16;99579.09;1724963;83;20283;-71
2022/07/20 08:37:44;;;;;;;;;;;;;;;25.88;58.65;99569.55;1725023;83;20499;-69
2022/07/20 08:40:11;;;;;;;;;;;;;;;25.93;58.49;99568.48;1726429;82;20085;-73
2022/07/20 08:42:42;;;;;;;;;;;;;;;25.95;57.61;99566.66;1724388;83;20145;-70
2022/07/20 08:45:17;;;;;;;;;;;;;;;26.07;58.18;99568.11;1723752;83;21249;-70
2022/07/20 08:47:44;;;;;;;;;;;;;;;26.18;57.05;99551.29;1724212;83;20159;-69
2022/07/20 08:50:13;;;;;;;;;;;;;;;26.34;57.06;99551.33;1724701;83;20101;-69
2022/07/20 08:52:39;;;;;;;;;;;;;;;26.57;56.59;99542.97;1723814;83;20446;-69
2022/07/20 08:55:10;;;;;;;;;;;;;;;26.71;55.31;99530.06;1724665;83;20073;-69
2022/07/20 08:57:47;;;;;;;;;;;;;;;26.83;56.02;99525.86;1724824;83;21180;-68
2022/07/20 09:00:16;;;;;;;;;;;;;;;27.17;53.10;99528.53;1699906;83;20428;-68
2022/07/20 09:03:01;;;;;;;;;;;;;;;27.44;52.18;99524.24;1724310;83;20085;-69
2022/07/20 09:05:33;;;;;;;;;;;;;;;27.64;50.19;99517.27;1724766;83;20459;-68
2022/07/20 09:08:02;;;;;;;;;;;;;;;27.75;49.29;99522.05;1724445;83;20149;-67
2022/07/20 09:10:34;;;;;;;;;;;;;;;27.74;50.43;99520.46;1724857;83;21095;-68
2022/07/20 09:13:07;;;;;;;;;;;;;;;27.69;50.04;99516.15;1700187;83;20117;-67
2022/07/20 09:15:45;;;;;;;;;;;;;;;27.56;50.92;99510.31;1724759;83;20424;-68
2022/07/20 09:18:30;;;;;;;;;;;;;;;27.52;50.98;99511.00;1724279;83;20117;-68
2022/07/20 09:21:04;;;;;;;;;;;;;;;27.55;50.96;99499.47;1723761;83;20463;-68
2022/07/20 09:23:35;;;;;;;;;;;;;;;27.74;50.65;99495.08;1724570;83;21156;-69
2022/07/20 09:26:05;;;;;;;;;;;;;;;27.72;47.89;99482.05;1688386;83;20444;-68
2022/07/20 09:28:37;;;;;;;;;;;;;;;27.30;50.23;99488.04;1724445;83;20085;-68
2022/07/20 09:31:15;;;;;;;;;;;;;;;27.13;51.11;99477.11;1724543;83;20096;-68
2022/07/20 09:33:52;;;;;;;;;;;;;;;27.27;49.31;99471.20;1721687;83;20093;-67
2022/07/20 09:36:23;;;;;;;;;;;;;;;27.57;48.68;99463.98;1723657;83;21167;-67
2022/07/20 09:38:56;;;;;;;;;;;;;;;27.73;48.42;99454.03;1722953;83;20109;-69
2022/07/20 09:41:31;;;;;;;;;;;;;;;27.84;46.12;99453.17;1694482;83;20103;-68
2022/07/20 09:44:01;;;;;;;;;;;;;;;27.97;46.83;99451.28;1721107;83;20539;-67
2022/07/20 09:46:39;;;;;;;;;;;;;;;28.24;46.82;99447.69;1724497;83;20455;-68
2022/07/20 09:49:12;;;;;;;;;;;;;;;28.47;44.84;99445.94;1724482;83;20093;-68
2022/07/20 09:51:53;;;;;;;;;;;;;;;28.61;45.72;99451.24;1724365;83;20169;-68
2022/07/20 09:54:21;;;;;;;;;;;;;;;28.72;45.39;99444.72;1700101;83;20411;-67
2022/07/20 09:56:50;;;;;;;;;;;;;;;28.63;45.51;99433.24;1699325;83;20467;-68
2022/07/20 09:59:18;;;;;;;;;;;;;;;28.52;45.27;99423.62;1724533;83;20101;-68
2022/07/20 10:01:53;;;;;;;;;;;;;;;28.38;46.48;99423.16;1723670;83;21157;-68
2022/07/20 10:04:22;;;;;;;;;;;;;;;28.54;46.51;99426.80;1724473;83;20100;-70
2022/07/20 10:06:51;;;;;;;;;;;;;;;28.64;45.90;99416.48;1724115;83;20187;-69
2022/07/20 10:09:21;;;;;;;;;;;;;;;28.74;45.91;99401.91;1724694;83;20440;-69
2022/07/20 10:11:49;;;;;;;;;;;;;;;28.82;46.16;99404.14;1699578;83;20432;-68
2022/07/20 10:14:18;;;;;;;;;;;;;;;28.96;44.48;99400.13;1724486;83;21143;-68
2022/07/20 10:16:49;;;;;;;;;;;;;;;28.75;44.59;99400.05;1724396;83;20121;-68
2022/07/20 10:19:21;;;;;;;;;;;;;;;28.63;46.21;99386.64;1724465;83;20110;-73
2022/07/20 10:21:50;;;;;;;;;;;;;;;28.60;43.84;99377.03;1697586;83;20110;-69
2022/07/20 10:24:30;;;;;;;;;;;;;;;28.51;44.77;99380.30;1727039;83;20091;-70
2022/07/20 10:26:58;;;;;;;;;;;;;;;28.48;45.43;99392.47;1723436;83;21307;-69
2022/07/20 10:29:40;;;;;;;;;;;;;;;28.52;43.82;99369.17;1719007;82;20097;-70
2022/07/20 10:32:20;;;;;;;;;;;;;;;28.69;45.41;99358.67;1683273;83;20075;-68
2022/07/20 10:34:57;;;;;;;;;;;;;;;28.78;43.43;99354.59;1725485;83;20185;-70
2022/07/20 10:37:41;;;;;;;;;;;;;;;28.72;43.33;99343.66;1701497;83;20193;-69
2022/07/20 10:40:28;;;;;;;;;;;;;;;28.67;44.06;99351.25;1722520;83;20101;-69
2022/07/20 10:43:15;;;;;;;;;;;;;;;28.74;45.22;99340.56;1718573;83;20423;-72
2022/07/20 10:45:46;;;;;;;;;;;;;;;29.08;45.48;99347.12;1714950;83;20477;-68
2022/07/20 10:48:18;;;;;;;;;;;;;;;29.52;43.17;99330.52;1726455;83;20111;-71
2022/07/20 10:50:52;;;;;;;;;;;;;;;29.65;43.75;99329.13;1719810;83;20429;-72
2022/07/20 10:53:26;;;;;;;;;;;;;;;29.81;44.51;99321.96;1702506;83;20129;-72
2022/07/20 10:56:06;;;;;;;;;;;;;;;29.90;42.65;99317.84;1698542;83;20418;-72
2022/07/20 10:58:34;;;;;;;;;;;;;;;29.89;42.23;99306.34;1695988;84;20438;-69
2022/07/20 11:01:09;;;;;;;;;;;;;;;29.72;42.50;99306.28;1695722;84;20096;-70
2022/07/20 11:03:52;;;;;;;;;;;;;;;29.43;42.17;99307.80;1695937;84;20079;-71
2022/07/20 11:06:25;;;;;;;;;;;;;;;29.00;42.61;99302.55;1695014;84;21136;-70
2022/07/20 11:08:56;;;;;;;;;;;;;;;28.72;43.85;99303.50;1673088;84;20446;-70
2022/07/20 11:11:32;;;;;;;;;;;;;;;28.57;44.63;99298.05;1724256;83;20085;-69
2022/07/20 11:14:04;;;;;;;;;;;;;;;28.51;45.20;99285.70;1703454;83;20097;-69
2022/07/20 11:16:32;;;;;;;;;;;;;;;28.59;45.61;99287.11;1705963;83;20115;-69
2022/07/20 11:19:04;;;;;;;;;;;;;;;28.57;45.07;99282.52;1695759;84;20477;-70
2022/07/20 11:21:34;;;;;;;;;;;;;;;28.69;46.36;99275.34;1695667;84;20095;-69
2022/07/20 11:24:01;;;;;;;;;;;;;;;28.91;45.07;99264.43;1696576;83;20099;-70
2022/07/20 11:26:31;;;;;;;;;;;;;;;29.25;43.24;99256.78;1669744;84;20142;-70
2022/07/20 11:29:00;;;;;;;;;;;;;;;29.42;43.57;99249.66;1694141;83;20145;-69
2022/07/20 11:31:36;;;;;;;;;;;;;;;29.42;43.13;99249.66;1724564;83;21261;-69
2022/07/20 11:34:02;;;;;;;;;;;;;;;29.14;42.96;99251.27;1723996;83;20081;-70
2022/07/20 11:36:31;;;;;;;;;;;;;;;28.81;43.40;99253.42;1724177;83;20454;-69
2022/07/20 11:39:04;;;;;;;;;;;;;;;28.47;43.94;99246.27;1724739;83;20097;-70
2022/07/20 11:41:33;;;;;;;;;;;;;;;28.31;44.39;99239.89;1697830;83;20091;-71
2022/07/20 11:44:04;;;;;;;;;;;;;;;28.30;45.15;99231.25;1695845;84;21268;-71
2022/07/20 11:46:30;;;;;;;;;;;;;;;28.51;44.55;99234.27;1694892;84;20103;-70
2022/07/20 11:49:00;;;;;;;;;;;;;;;28.57;44.19;99226.84;1706417;83;20085;-70
2022/07/20 11:51:28;;;;;;;;;;;;;;;28.60;44.10;99223.75;1724973;83;20124;-78
2022/07/20 11:53:54;;;;;;;;;;;;;;;28.78;43.75;99215.56;1727460;83;20089;-83
2022/07/20 11:56:22;;;;;;;;;;;;;;;29.20;44.92;99211.32;1724661;83;21090;-72
2022/07/20 11:58:51;;;;;;;;;;;;;;;29.68;42.03;99204.56;1724608;83;20085;-71
2022/07/20 12:01:26;;;;;;;;;;;;;;;30.02;41.93;99199.63;1724785;83;20460;-71
2022/07/20 12:03:56;;;;;;;;;;;;;;;30.28;42.21;99196.70;1724591;83;20177;-70
2022/07/20 12:06:23;;;;;;;;;;;;;;;30.49;39.82;99195.33;1726200;82;20090;-71
2022/07/20 12:09:10;;;;;;;;;;;;;;;30.55;39.96;99185.61;1697545;83;21100;-71
2022/07/20 12:11:56;;;;;;;;;;;;;;;30.58;40.37;99174.02;1708562;83;20110;-71
2022/07/20 12:14:43;;;;;;;;;;;;;;;30.61;40.32;99172.48;1698315;83;20121;-71
2022/07/20 12:17:15;;;;;;;;;;;;;;;30.81;40.18;99170.70;1718658;83;20124;-71
2022/07/20 12:19:42;;;;;;;;;;;;;;;30.92;39.28;99173.13;1711466;83;20110;-71
2022/07/20 12:22:16;;;;;;;;;;;;;;;31.02;38.84;99169.09;1718818;83;21116;-71
2022/07/20 12:24:56;;;;;;;;;;;;;;;31.11;37.34;99165.69;1718637;83;20456;-71
2022/07/20 12:27:25;;;;;;;;;;;;;;;31.18;38.38;99162.61;1718888;83;20117;-71
2022/07/20 12:29:51;;;;;;;;;;;;;;;31.15;38.45;99164.16;1718983;83;20097;-71
2022/07/20 12:32:34;;;;;;;;;;;;;;;30.97;36.76;99160.57;1718739;83;20117;-71
2022/07/20 12:35:02;;;;;;;;;;;;;;;30.86;38.65;99163.81;1719575;83;21120;-71
2022/07/20 12:37:49;;;;;;;;;;;;;;;30.97;36.99;99147.81;1706357;83;20489;-71
2022/07/20 12:40:38;;;;;;;;;;;;;;;30.98;37.58;99140.89;1695681;84;20103;-74
2022/07/20 12:43:06;;;;;;;;;;;;;;;31.13;38.01;99134.07;1722916;83;20075;-71
2022/07/20 12:45:33;;;;;;;;;;;;;;;31.25;36.57;99126.06;1719572;83;20103;-70
2022/07/20 12:47:59;;;;;;;;;;;;;;;31.15;37.06;99116.76;1699474;83;21137;-71
2022/07/20 12:50:25;;;;;;;;;;;;;;;30.78;36.62;99104.41;1695587;84;20087;-72
2022/07/20 12:52:52;;;;;;;;;;;;;;;30.33;38.11;99102.69;1710366;83;20160;-75
2022/07/20 12:55:19;;;;;;;;;;;;;;;30.05;37.38;99086.90;1712598;83;20375;-74
2022/07/20 12:57:47;;;;;;;;;;;;;;;29.96;38.68;99091.06;1698362;83;20100;-70
2022/07/20 13:00:14;;;;;;;;;;;;;;;30.17;37.55;99083.84;1724769;83;20550;-71
2022/07/20 13:02:41;;;;;;;;;;;;;;;30.35;37.59;99084.61;1727731;83;20071;-71
2022/07/20 13:05:08;;;;;;;;;;;;;;;30.58;37.71;99083.39;1725079;83;20097;-72